Terminal Aerodrome Forecast
Issued by NWS Duluth, MN

Home | Current Version | Previous Version | Text Only | Print | Product List | Glossary On
Versions: 1 2 3 4 5 6 7 8 9 10 11 12 13 14 15 16 17 18 19
000
FTUS43 KDLH 031100 RRA
TAFINL
TAF
KINL 031145Z 0312/0412 27006KT P6SM BKN090
     FM031400 32010KT P6SM BKN100
     FM032000 29012G24KT P6SM SKC
     FM040000 30008KT P6SM FEW070=

USA.gov is the U.S. government's official web portal to all federal, state and local government web resources and services.